createdAt,value
2022-07-31T00:01:20.599Z,99442.94
2022-07-31T00:03:55.218Z,99434.75
2022-07-31T00:06:27.029Z,99444.63
2022-07-31T00:09:00.576Z,99442.34
2022-07-31T00:11:32.260Z,99435.97
2022-07-31T00:14:05.623Z,99441.31
2022-07-31T00:16:37.238Z,99441.75
2022-07-31T00:19:08.870Z,99441.13
2022-07-31T00:21:40.488Z,99439.28
2022-07-31T00:24:12.060Z,99444.41
2022-07-31T00:26:43.649Z,99432.09
2022-07-31T00:29:16.076Z,99441.34
2022-07-31T00:31:48.348Z,99436.19
2022-07-31T00:34:20.008Z,99438.28
2022-07-31T00:36:51.700Z,99438.09
2022-07-31T00:39:24.245Z,99434.78
2022-07-31T00:41:55.897Z,99434.16
2022-07-31T00:44:27.538Z,99438.28
2022-07-31T00:46:59.145Z,99437.09
2022-07-31T00:49:37.684Z,99439.97
2022-07-31T00:52:10.023Z,99440.59
2022-07-31T00:54:41.855Z,99443.69
2022-07-31T00:57:15.241Z,99450.03
2022-07-31T00:59:46.996Z,99443.09
2022-07-31T01:02:18.749Z,99437.94
2022-07-31T01:04:53.077Z,99431.97
2022-07-31T01:07:26.245Z,99440.63
2022-07-31T01:10:00.418Z,99446.38
2022-07-31T01:12:39.735Z,99451.94
2022-07-31T01:15:15.207Z,99445.97
2022-07-31T01:17:50.290Z,99448.84
2022-07-31T01:20:22.661Z,99441.88
2022-07-31T01:23:27.593Z,99446.63
2022-07-31T01:26:37.755Z,99446.19
2022-07-31T01:29:49.726Z,99447.44
2022-07-31T01:32:27.928Z,99438.00
2022-07-31T01:35:11.681Z,99436.59
2022-07-31T01:37:48.045Z,99434.13
2022-07-31T01:40:30.092Z,99438.25
2022-07-31T01:43:33.746Z,99435.16
2022-07-31T01:46:10.183Z,99439.88
2022-07-31T01:48:43.417Z,99448.91
2022-07-31T01:51:18.177Z,99448.28
2022-07-31T01:53:50.979Z,99443.97
2022-07-31T01:56:23.793Z,99445.00
2022-07-31T01:59:00.216Z,99439.91
2022-07-31T02:01:53.822Z,99443.97
2022-07-31T02:04:25.783Z,99435.38
2022-07-31T02:06:59.134Z,99427.59
2022-07-31T02:09:33.149Z,99425.94
2022-07-31T02:12:09.475Z,99424.28
2022-07-31T02:14:43.651Z,99419.78
2022-07-31T02:17:22.266Z,99421.41
2022-07-31T02:20:13.309Z,99418.94
2022-07-31T02:22:44.997Z,99411.38
2022-07-31T02:25:16.810Z,99400.72
2022-07-31T02:27:53.608Z,99405.63
2022-07-31T02:30:39.729Z,99393.09
2022-07-31T02:33:21.967Z,99399.50
2022-07-31T02:35:56.355Z,99401.53
2022-07-31T02:38:28.479Z,99402.56
2022-07-31T02:41:04.828Z,99404.59
2022-07-31T02:43:37.673Z,99398.66
2022-07-31T02:46:18.957Z,99409.72
2022-07-31T02:48:52.222Z,99404.63
2022-07-31T02:51:26.174Z,99402.16
2022-07-31T02:53:58.559Z,99401.50
2022-07-31T02:56:33.766Z,99395.53
2022-07-31T02:59:05.406Z,99398.44
2022-07-31T03:01:54.548Z,99400.69
2022-07-31T03:04:26.490Z,99397.63
2022-07-31T03:07:03.998Z,99405.22
2022-07-31T03:09:36.459Z,99410.53
2022-07-31T03:12:26.565Z,99408.28
2022-07-31T03:14:59.698Z,99408.06
2022-07-31T03:17:40.793Z,99412.38
2022-07-31T03:20:18.738Z,99414.22
2022-07-31T03:22:51.394Z,99417.09
2022-07-31T03:25:24.418Z,99405.81
2022-07-31T03:27:56.936Z,99411.13
2022-07-31T03:30:29.185Z,99407.88
2022-07-31T03:33:03.511Z,99401.91
2022-07-31T03:35:39.178Z,99408.50
2022-07-31T03:38:41.018Z,99411.34
2022-07-31T03:41:11.058Z,99407.22
2022-07-31T03:43:47.902Z,99405.38
2022-07-31T03:46:25.602Z,99413.19
2022-07-31T03:48:57.589Z,99412.16
2022-07-31T03:51:32.567Z,99410.94
2022-07-31T03:54:04.386Z,99411.16
2022-07-31T03:56:50.241Z,99411.16
2022-07-31T03:59:24.598Z,99413.59
2022-07-31T04:02:00.727Z,99420.38
2022-07-31T04:04:43.108Z,99410.34
2022-07-31T04:07:14.821Z,99412.59
2022-07-31T04:09:46.583Z,99417.50
2022-07-31T04:12:21.125Z,99410.94
2022-07-31T04:14:53.141Z,99409.72
2022-07-31T04:17:25.063Z,99405.59
2022-07-31T04:19:57.639Z,99412.38
2022-07-31T04:22:29.408Z,99414.00
2022-07-31T04:25:07.288Z,99411.78
2022-07-31T04:28:10.487Z,99412.38
2022-07-31T04:30:42.207Z,99413.03
2022-07-31T04:33:15.053Z,99405.41
2022-07-31T04:35:47.837Z,99402.72
2022-07-31T04:38:19.494Z,99402.66
2022-07-31T04:40:51.573Z,99406.94
2022-07-31T04:43:23.289Z,99404.00
2022-07-31T04:45:54.968Z,99396.13
2022-07-31T04:48:26.559Z,99402.22
2022-07-31T04:50:58.184Z,99409.19
2022-07-31T04:53:29.821Z,99404.56
2022-07-31T04:56:20.993Z,99407.31
2022-07-31T04:58:52.604Z,99404.94
2022-07-31T05:01:24.256Z,99405.84
2022-07-31T05:03:57.651Z,99406.56
2022-07-31T05:06:38.685Z,99403.44
2022-07-31T05:09:19.045Z,99404.53
2022-07-31T05:11:52.923Z,99409.66
2022-07-31T05:14:27.541Z,99411.22
2022-07-31T05:16:59.542Z,99412.50
2022-07-31T05:19:38.185Z,99408.63
2022-07-31T05:22:30.094Z,99413.34
2022-07-31T05:25:15.469Z,99406.91
2022-07-31T05:27:47.404Z,99407.66
2022-07-31T05:30:30.058Z,99412.75
2022-07-31T05:33:02.751Z,99410.31
2022-07-31T05:35:38.410Z,99407.41
2022-07-31T05:38:15.290Z,99407.78
2022-07-31T05:41:14.424Z,99398.66
2022-07-31T05:44:06.333Z,99407.41
2022-07-31T05:49:28.889Z,99405.09
2022-07-31T05:52:04.362Z,99405.13
2022-07-31T05:54:36.346Z,99413.03
2022-07-31T05:57:34.111Z,99412.00
2022-07-31T06:00:08.678Z,99411.78
2022-07-31T06:02:45.872Z,99398.41
2022-07-31T06:05:36.371Z,99403.56
2022-07-31T06:08:09.620Z,99402.50
2022-07-31T06:10:45.826Z,99400.34
2022-07-31T06:13:17.489Z,99397.22
2022-07-31T06:15:49.605Z,99400.69
2022-07-31T06:18:22.201Z,99403.09
2022-07-31T06:20:55.469Z,99405.13
2022-07-31T06:23:31.988Z,99408.75
2022-07-31T06:26:20.917Z,99406.28
2022-07-31T06:28:55.911Z,99404.31
2022-07-31T06:31:27.524Z,99401.25
2022-07-31T06:34:01.698Z,99401.72
2022-07-31T06:36:41.664Z,99404.59
2022-07-31T06:39:17.815Z,99398.84
2022-07-31T06:41:53.271Z,99397.59
2022-07-31T06:44:46.337Z,99398.47
2022-07-31T06:47:36.832Z,99394.94
2022-07-31T06:50:16.137Z,99400.72
2022-07-31T06:53:03.004Z,99396.97
2022-07-31T06:55:34.721Z,99398.91
2022-07-31T06:58:07.798Z,99397.53
2022-07-31T07:00:42.202Z,99394.81
2022-07-31T07:03:14.442Z,99386.72
2022-07-31T07:05:46.809Z,99383.47
2022-07-31T07:08:19.604Z,99388.94
2022-07-31T07:10:54.227Z,99369.97
2022-07-31T07:13:45.980Z,99382.41
2022-07-31T07:16:19.889Z,99377.19
2022-07-31T07:18:51.801Z,99374.63
2022-07-31T07:21:23.812Z,99379.97
2022-07-31T07:23:55.442Z,99377.00
2022-07-31T07:26:35.903Z,99384.38
2022-07-31T07:29:08.765Z,99378.13
2022-07-31T07:31:40.437Z,99377.25
2022-07-31T07:34:12.036Z,99383.28
2022-07-31T07:36:46.175Z,99375.56
2022-07-31T07:39:25.649Z,99377.75
2022-07-31T07:41:57.266Z,99375.91
2022-07-31T07:44:28.910Z,99368.59
2022-07-31T07:47:00.507Z,99370.66
2022-07-31T07:49:35.973Z,99356.44
2022-07-31T07:52:45.573Z,99355.53
2022-07-31T07:55:37.552Z,99362.53
2022-07-31T07:58:30.893Z,99355.91
2022-07-31T08:01:22.789Z,99361.19
2022-07-31T08:03:58.349Z,99361.09
2022-07-31T08:06:29.994Z,99358.69
2022-07-31T08:09:01.737Z,99358.91
2022-07-31T08:11:51.887Z,99345.28
2022-07-31T08:14:40.402Z,99348.59
2022-07-31T08:17:32.248Z,99349.84
2022-07-31T08:20:09.877Z,99348.75
2022-07-31T08:22:41.696Z,99335.84
2022-07-31T08:25:15.251Z,99343.91
2022-07-31T08:27:50.022Z,99333.91
2022-07-31T08:30:24.880Z,99333.44
2022-07-31T08:33:08.674Z,99334.41
2022-07-31T08:35:44.721Z,99333.56
2022-07-31T08:38:22.267Z,99342.25
2022-07-31T08:41:26.093Z,99330.88
2022-07-31T08:44:02.029Z,99332.53
2022-07-31T08:46:40.082Z,99325.47
2022-07-31T08:49:16.357Z,99328.81
2022-07-31T08:52:01.850Z,99316.78
2022-07-31T08:54:53.654Z,99312.06
2022-07-31T08:57:28.384Z,99323.09
2022-07-31T09:00:01.107Z,99312.38
2022-07-31T09:02:33.060Z,99306.41
2022-07-31T09:05:41.796Z,99306.22
2022-07-31T09:08:15.254Z,99298.97
2022-07-31T09:11:02.301Z,99299.72
2022-07-31T09:13:35.489Z,99295.56
2022-07-31T09:16:11.112Z,99290.63
2022-07-31T09:18:43.362Z,99280.81
2022-07-31T09:21:17.268Z,99282.91
2022-07-31T09:23:48.989Z,99286.56
2022-07-31T09:26:32.219Z,99287.06
2022-07-31T09:29:08.494Z,99275.16
2022-07-31T09:31:40.133Z,99279.94
2022-07-31T09:34:34.658Z,99271.41
2022-07-31T09:37:13.986Z,99272.44
2022-07-31T09:40:14.967Z,99272.59
2022-07-31T09:43:24.432Z,99272.94
2022-07-31T09:46:04.087Z,99268.06
2022-07-31T09:48:37.413Z,99263.13
2022-07-31T09:51:09.214Z,99263.31
2022-07-31T09:53:43.812Z,99257.16
2022-07-31T09:56:36.105Z,99253.03
2022-07-31T09:59:08.881Z,99251.41
2022-07-31T10:01:47.717Z,99248.78
2022-07-31T10:04:21.443Z,99246.13
2022-07-31T10:06:56.080Z,99251.78
2022-07-31T10:09:29.178Z,99252.91
2022-07-31T10:12:19.275Z,99246.44
2022-07-31T10:14:53.126Z,99239.25
2022-07-31T10:17:27.219Z,99242.81
2022-07-31T10:20:22.025Z,99243.09
2022-07-31T10:23:23.796Z,99232.94
2022-07-31T10:26:01.495Z,99230.06
2022-07-31T10:28:37.693Z,99236.13
2022-07-31T10:31:12.182Z,99233.22
2022-07-31T10:33:45.866Z,99233.81
2022-07-31T10:36:48.897Z,99226.75
2022-07-31T10:40:01.721Z,99218.88
2022-07-31T10:43:18.940Z,99221.28
2022-07-31T10:46:02.567Z,99217.72
2022-07-31T10:48:52.321Z,99211.78
2022-07-31T10:51:56.470Z,99211.59
2022-07-31T10:55:01.130Z,99208.75
2022-07-31T10:58:14.319Z,99208.44
2022-07-31T11:01:09.979Z,99199.75
2022-07-31T11:04:11.251Z,99205.59
2022-07-31T11:07:19.789Z,99205.84
2022-07-31T11:10:13.495Z,99209.75
2022-07-31T11:13:14.319Z,99201.09
2022-07-31T11:16:05.145Z,99194.94
2022-07-31T11:19:06.350Z,99189.06
2022-07-31T11:21:40.696Z,99196.31
2022-07-31T11:24:12.389Z,99185.94
2022-07-31T11:26:53.692Z,99197.69
2022-07-31T11:30:01.809Z,99199.19
2022-07-31T11:32:25.107Z,99192.81
2022-07-31T11:34:58.098Z,99194.09
2022-07-31T11:37:46.239Z,99201.97
2022-07-31T11:40:27.888Z,99187.31
2022-07-31T11:45:54.969Z,99192.78
2022-07-31T11:48:27.926Z,99196.31
2022-07-31T11:51:01.138Z,99185.16
2022-07-31T11:53:41.960Z,99193.28
2022-07-31T11:56:16.833Z,99182.41
2022-07-31T11:58:58.537Z,99186.06
2022-07-31T12:01:30.164Z,99184.50
2022-07-31T12:04:08.720Z,99180.88
2022-07-31T12:06:40.993Z,99177.31
2022-07-31T12:10:00.611Z,99179.53
2022-07-31T12:12:05.326Z,99165.25
2022-07-31T12:14:39.653Z,99170.63
2022-07-31T12:17:20.269Z,99163.72
2022-07-31T12:19:54.899Z,99168.81
2022-07-31T12:22:29.506Z,99164.63
2022-07-31T12:25:04.057Z,99157.38
2022-07-31T12:27:39.176Z,99158.63
2022-07-31T12:30:16.209Z,99161.34
2022-07-31T12:32:47.793Z,99159.31
2022-07-31T12:35:19.485Z,99160.03
2022-07-31T12:37:53.019Z,99154.28
2022-07-31T12:40:26.706Z,99155.09
2022-07-31T12:42:59.610Z,99156.59
2022-07-31T12:45:34.352Z,99147.72
2022-07-31T12:48:09.109Z,99151.56
2022-07-31T12:50:40.666Z,99150.66
2022-07-31T12:53:12.250Z,99138.53
2022-07-31T12:55:44.174Z,99136.78
2022-07-31T12:58:17.133Z,99136.09
2022-07-31T13:00:48.823Z,99135.72
2022-07-31T13:03:22.625Z,99132.44
2022-07-31T13:05:55.842Z,99128.47
2022-07-31T13:08:27.914Z,99124.38
2022-07-31T13:10:59.954Z,99125.56
2022-07-31T13:13:31.969Z,99125.56
2022-07-31T13:16:03.656Z,99118.53
2022-07-31T13:18:36.338Z,99120.41
2022-07-31T13:21:07.938Z,99112.31
2022-07-31T13:23:39.587Z,99114.41
2022-07-31T13:26:11.222Z,99115.88
2022-07-31T13:28:42.914Z,99108.47
2022-07-31T13:31:16.584Z,99116.53
2022-07-31T13:33:48.316Z,99110.66
2022-07-31T13:36:20.073Z,99109.78
2022-07-31T13:38:51.996Z,99112.81
2022-07-31T13:41:32.025Z,99107.47
2022-07-31T13:44:04.121Z,99109.41
2022-07-31T13:46:36.414Z,99112.28
2022-07-31T13:49:09.308Z,99115.47
2022-07-31T13:51:41.204Z,99111.84
2022-07-31T13:54:16.984Z,99111.38
2022-07-31T13:56:48.921Z,99120.97
2022-07-31T13:59:21.619Z,99122.69
2022-07-31T14:02:04.538Z,99123.34
2022-07-31T14:04:38.955Z,99125.78
2022-07-31T14:07:12.824Z,99125.09
2022-07-31T14:09:47.003Z,99126.97
2022-07-31T14:12:28.485Z,99126.53
2022-07-31T14:15:00.161Z,99125.72
2022-07-31T14:17:31.827Z,99129.97
2022-07-31T14:20:04.058Z,99125.41
2022-07-31T14:22:35.817Z,99126.88
2022-07-31T14:25:08.348Z,99128.34
2022-07-31T14:27:40.007Z,99120.28
2022-07-31T14:30:13.269Z,99116.25
2022-07-31T14:32:51.609Z,99123.00
2022-07-31T14:35:23.460Z,99122.44
2022-07-31T14:37:55.133Z,99113.22
2022-07-31T14:40:32.497Z,99114.78
2022-07-31T14:43:04.501Z,99114.19
2022-07-31T14:45:49.974Z,99107.78
2022-07-31T14:48:23.654Z,99113.47
2022-07-31T14:50:55.484Z,99116.41
2022-07-31T14:53:27.095Z,99104.78
2022-07-31T14:56:03.744Z,99110.28
2022-07-31T14:58:57.470Z,99105.56
2022-07-31T15:01:30.594Z,99102.44
2022-07-31T15:04:03.193Z,99108.88
2022-07-31T15:06:37.537Z,99103.28
2022-07-31T15:09:23.499Z,99102.38
2022-07-31T15:11:59.643Z,99095.25
2022-07-31T15:14:35.613Z,99090.00
2022-07-31T15:17:12.094Z,99091.84
2022-07-31T15:19:46.918Z,99092.72
2022-07-31T15:22:19.364Z,99095.00
2022-07-31T15:24:51.146Z,99089.03
2022-07-31T15:27:24.259Z,99092.91
2022-07-31T15:30:03.839Z,99092.75
2022-07-31T15:32:39.217Z,99092.97
2022-07-31T15:35:13.758Z,99090.72
2022-07-31T15:37:45.810Z,99086.91
2022-07-31T15:40:17.740Z,99088.00
2022-07-31T15:42:49.927Z,99090.47
2022-07-31T15:45:21.702Z,99088.19
2022-07-31T15:47:53.354Z,99084.28
2022-07-31T15:50:25.221Z,99083.81
2022-07-31T15:52:56.926Z,99082.03
2022-07-31T15:55:28.941Z,99090.47
2022-07-31T15:58:00.550Z,99092.34
2022-07-31T16:00:32.161Z,99081.22
2022-07-31T16:03:04.738Z,99081.16
2022-07-31T16:05:38.785Z,99076.31
2022-07-31T16:08:28.478Z,99074.69
2022-07-31T16:11:02.581Z,99069.47
2022-07-31T16:13:36.433Z,99072.16
2022-07-31T16:16:10.013Z,99072.72
2022-07-31T16:18:42.224Z,99071.50
2022-07-31T16:21:13.821Z,99065.09
2022-07-31T16:23:45.530Z,99066.47
2022-07-31T16:26:17.134Z,99065.59
2022-07-31T16:28:53.625Z,99064.44
2022-07-31T16:31:29.892Z,99054.00
2022-07-31T16:34:02.603Z,99059.34
2022-07-31T16:36:34.251Z,99062.00
2022-07-31T16:39:19.949Z,99061.25
2022-07-31T16:41:52.123Z,99067.31
2022-07-31T16:44:26.843Z,99063.28
2022-07-31T16:46:58.472Z,99061.34
2022-07-31T16:49:36.847Z,99054.53
2022-07-31T16:52:08.803Z,99060.84
2022-07-31T16:54:41.610Z,99062.56
2022-07-31T16:57:13.479Z,99063.69
2022-07-31T16:59:56.913Z,99060.53
2022-07-31T17:02:32.333Z,99061.38
2022-07-31T17:05:04.279Z,99052.44
2022-07-31T17:07:35.905Z,99055.19
2022-07-31T17:10:08.180Z,99057.41
2022-07-31T17:12:39.786Z,99055.81
2022-07-31T17:15:11.812Z,99055.00
2022-07-31T17:17:43.773Z,99060.97
2022-07-31T17:20:18.398Z,99058.53
2022-07-31T17:22:54.505Z,99056.41
2022-07-31T17:25:29.507Z,99061.34
2022-07-31T17:28:01.202Z,99064.69
2022-07-31T17:30:33.004Z,99060.09
2022-07-31T17:33:04.842Z,99057.38
2022-07-31T17:35:36.478Z,99060.09
2022-07-31T17:38:10.997Z,99054.69
2022-07-31T17:40:44.141Z,99057.38
2022-07-31T17:43:16.138Z,99062.00
2022-07-31T17:45:59.843Z,99061.22
2022-07-31T17:48:42.996Z,99058.78
2022-07-31T17:51:14.678Z,99060.97
2022-07-31T17:53:54.998Z,99060.97
2022-07-31T17:56:31.057Z,99061.53
2022-07-31T17:59:06.286Z,99066.97
2022-07-31T18:01:38.921Z,99067.78
2022-07-31T18:04:10.776Z,99066.47
2022-07-31T18:06:51.362Z,99074.06
2022-07-31T18:09:26.435Z,99080.88
2022-07-31T18:11:58.861Z,99075.47
2022-07-31T18:14:30.571Z,99083.09
2022-07-31T18:17:02.261Z,99084.47
2022-07-31T18:19:33.869Z,99086.13
2022-07-31T18:22:05.823Z,99082.06
2022-07-31T18:24:38.029Z,99081.00
2022-07-31T18:27:09.738Z,99087.28
2022-07-31T18:29:41.350Z,99082.97
2022-07-31T18:32:30.990Z,99084.63
2022-07-31T18:35:06.240Z,99084.13
2022-07-31T18:37:37.875Z,99089.00
2022-07-31T18:40:10.282Z,99086.06
2022-07-31T18:42:41.918Z,99089.56
2022-07-31T18:45:13.542Z,99090.69
2022-07-31T18:47:45.238Z,99091.81
2022-07-31T18:51:03.014Z,99089.66
2022-07-31T18:53:08.815Z,99087.22
2022-07-31T18:55:40.442Z,99091.28
2022-07-31T18:58:13.512Z,99098.03
2022-07-31T19:00:45.282Z,99101.31
2022-07-31T19:03:25.138Z,99101.59
2022-07-31T19:05:58.522Z,99102.66
2022-07-31T19:08:30.329Z,99100.22
2022-07-31T19:11:01.902Z,99107.84
2022-07-31T19:13:33.733Z,99113.78
2022-07-31T19:16:05.697Z,99106.22
2022-07-31T19:18:39.858Z,99105.97
2022-07-31T19:21:23.356Z,99109.22
2022-07-31T19:24:04.079Z,99109.75
2022-07-31T19:26:36.053Z,99113.03
2022-07-31T19:29:07.725Z,99116.81
2022-07-31T19:31:39.431Z,99114.66
2022-07-31T19:34:11.081Z,99114.41
2022-07-31T19:36:43.847Z,99123.59
2022-07-31T19:39:15.474Z,99119.56
2022-07-31T19:42:10.654Z,99119.00
2022-07-31T19:44:41.140Z,99123.88
2022-07-31T19:47:12.775Z,99119.56
2022-07-31T19:49:46.699Z,99124.69
2022-07-31T19:52:18.482Z,99122.56
2022-07-31T19:54:50.279Z,99127.41
2022-07-31T19:57:23.783Z,99129.88
2022-07-31T19:59:55.477Z,99120.38
2022-07-31T20:02:27.649Z,99130.66
2022-07-31T20:05:00.124Z,99126.59
2022-07-31T20:07:33.134Z,99126.84
2022-07-31T20:10:09.804Z,99130.13
2022-07-31T20:12:41.543Z,99125.50
2022-07-31T20:15:13.408Z,99127.13
2022-07-31T20:17:45.050Z,99124.41
2022-07-31T20:20:16.714Z,99122.78
2022-07-31T20:22:48.356Z,99122.28
2022-07-31T20:25:20.766Z,99119.00
2022-07-31T20:27:52.423Z,99120.34
2022-07-31T20:30:25.164Z,99120.91
2022-07-31T20:32:56.725Z,99113.63
2022-07-31T20:35:31.228Z,99120.09
2022-07-31T20:38:23.517Z,99123.63
2022-07-31T20:40:56.114Z,99117.66
2022-07-31T20:43:29.642Z,99116.03
2022-07-31T20:46:01.369Z,99116.28
2022-07-31T20:48:33.221Z,99121.19
2022-07-31T20:51:05.657Z,99117.38
2022-07-31T20:53:37.505Z,99120.34
2022-07-31T20:56:09.163Z,99130.88
2022-07-31T20:58:41.414Z,99136.53
2022-07-31T21:01:14.932Z,99140.03
2022-07-31T21:03:46.883Z,99140.25
2022-07-31T21:06:20.885Z,99138.88
2022-07-31T21:08:52.593Z,99127.56
2022-07-31T21:11:31.259Z,99120.53
2022-07-31T21:14:03.637Z,99111.34
2022-07-31T21:16:35.253Z,99119.72
2022-07-31T21:19:08.453Z,99106.19
2022-07-31T21:21:42.021Z,99107.00
2022-07-31T21:24:14.468Z,99109.16
2022-07-31T21:26:51.118Z,99108.59
2022-07-31T21:29:23.665Z,99102.41
2022-07-31T21:31:55.549Z,99104.81
2022-07-31T21:34:27.419Z,99107.78
2022-07-31T21:37:02.830Z,99102.66
2022-07-31T21:39:38.298Z,99105.31
2022-07-31T21:42:12.587Z,99108.53
2022-07-31T21:44:45.052Z,99105.84
2022-07-31T21:47:19.933Z,99099.06
2022-07-31T21:49:57.897Z,99104.97
2022-07-31T21:52:30.119Z,99101.97
2022-07-31T21:55:04.085Z,99105.22
2022-07-31T21:57:58.930Z,99104.34
2022-07-31T22:00:28.425Z,99101.66
2022-07-31T22:03:02.985Z,99110.53
2022-07-31T22:05:53.675Z,99106.78
2022-07-31T22:08:25.309Z,99108.94
2022-07-31T22:10:56.882Z,99110.25
2022-07-31T22:13:28.569Z,99118.34
2022-07-31T22:16:01.131Z,99106.44
2022-07-31T22:18:36.273Z,99114.00
2022-07-31T22:21:09.113Z,99114.00
2022-07-31T22:23:40.981Z,99109.66
2022-07-31T22:26:14.749Z,99109.41
2022-07-31T22:28:47.656Z,99108.03
2022-07-31T22:31:19.454Z,99111.81
2022-07-31T22:33:51.625Z,99110.19
2022-07-31T22:36:25.523Z,99107.19
2022-07-31T22:38:57.686Z,99109.88
2022-07-31T22:41:29.305Z,99113.38
2022-07-31T22:44:13.977Z,99105.28
2022-07-31T22:46:48.469Z,99109.88
2022-07-31T22:49:21.216Z,99109.59
2022-07-31T22:51:52.893Z,99107.94
2022-07-31T22:54:27.081Z,99105.00
2022-07-31T22:56:59.037Z,99102.53
2022-07-31T22:59:30.733Z,99099.75
2022-07-31T23:02:03.563Z,99102.16
2022-07-31T23:04:36.664Z,99097.31
2022-07-31T23:07:09.685Z,99101.88
2022-07-31T23:09:41.264Z,99110.50
2022-07-31T23:12:12.854Z,99114.31
2022-07-31T23:14:44.450Z,99108.13
2022-07-31T23:17:23.143Z,99110.81
2022-07-31T23:19:55.874Z,99108.84
2022-07-31T23:22:33.224Z,99110.97
2022-07-31T23:25:06.281Z,99111.13
2022-07-31T23:27:37.839Z,99111.06
2022-07-31T23:30:10.056Z,99115.09
2022-07-31T23:32:41.634Z,99114.53
2022-07-31T23:35:13.269Z,99111.56
2022-07-31T23:37:44.951Z,99112.03
2022-07-31T23:40:16.545Z,99112.25
2022-07-31T23:42:48.674Z,99109.78
2022-07-31T23:45:20.531Z,99103.28
2022-07-31T23:47:53.229Z,99102.16
2022-07-31T23:50:30.908Z,99107.31
2022-07-31T23:53:02.464Z,99101.06
2022-07-31T23:55:34.155Z,99099.63
2022-07-31T23:58:11.353Z,99104.44
